Anza Borrego Desert Research Center, California Weather observations

Data are for 10 minute period ending at time listed.
 Day   Time   Solar   Ave.   Ave.  Ave.  Vector  Max.   Baro.   Total    
  of    of     Rad.   Air    Rel.  Wind   Wind   Wind  Press.  Precip.   
Year   Day            Temp.  Hum.  Speed  Dir.   Gust                    
2014   (PST)  Kw/m2    F      %     mph   deg.    mph    mb.     in.     
-------------------------------------------------------------------------
 206    0:50   0.00   93.9    16    3.1   301     4.7   502.1    0.00 
 206    1:00   0.00   94.4    16    2.3   287     3.7   502.1    0.00 
 206    1:10   0.00   93.5    16    1.5   198     4.0   502.1    0.00 
 206    1:20   0.00   93.5    16    1.8   212     2.9   502.1    0.00 
 206    1:30   0.00   92.8    16    4.4   234     6.6   502.1    0.00 
 206    1:40   0.00   93.5    16    3.4   191     5.6   502.1    0.00 
 206    1:50   0.00   92.7    16    4.0   170     5.8   502.1    0.00 
 206    2:00   0.00   93.9    14    3.9   208     6.2   502.1    0.00 
 206    2:10   0.00   95.1    14    3.9   214     6.9   502.1    0.00 
 206    2:20   0.00   95.1    13    2.6   178     6.8   502.1    0.00 
 206    2:30   0.00   95.4    13    3.8   224     6.3   502.1    0.00 
 206    2:40   0.00   94.6    13    2.7   193     5.0   502.1    0.00 
 206    2:50   0.00   94.5    14    3.6   225     5.6   502.1    0.00 
 206    3:00   0.00   94.8    14    1.9   240     3.9   502.1    0.00 
 206    3:10   0.00   95.7    13    2.3    96     4.3   502.1    0.00 
 206    3:20   0.00   94.8    14    1.5   184     3.3   502.1    0.00 
 206    3:30   0.00   94.6    13    3.6   112     5.6   502.1    0.00 
 206    3:40   0.00   93.5    14    3.7   151     9.1   502.1    0.00 
 206    3:50   0.00   95.5    12    9.3   146    12.7   502.1    0.00 
 206    4:00   0.00   96.1    11    8.3   137    11.0   502.1    0.00 
 206    4:10   0.00   95.8    11    2.6   141     8.0   502.1    0.00 
 206    4:20   0.00   94.9    12    4.1   314     5.8   502.1    0.00 
 206    4:30   0.00   94.1    12    4.3   158     8.0   502.1    0.00 
 206    4:40   0.00   94.2    12    2.8   242     5.2   502.1    0.00 
 206    4:50   0.00   93.6    13    4.4   200    17.7   502.1    0.00 
 206    5:00   0.00   91.6    39   14.2   153    18.7   502.1    0.00 
 206    5:10   0.00   90.7    44   13.6   152    17.4   502.1    0.00 
 206    5:20   0.00   90.2    47    7.9   156    13.6   502.1    0.00 
 206    5:30   0.02   90.1    47    7.2   162     9.9   502.1    0.00 
 206    5:40   0.03   90.5    47    7.1   153    10.1   502.1    0.00 
 206    5:50   0.03   90.1    49    6.0   166     9.1   502.1    0.00 
 206    6:00   0.05   89.9    51    4.1   128     7.6   502.1    0.00 
 206    6:10   0.07   90.0    50    5.4   117     8.1   502.1    0.00 
 206    6:20   0.10   90.4    50    4.3   119     6.9   502.1    0.00 
 206    6:30   0.13   90.8    50    4.6   110     8.5   502.1    0.00 
 206    6:40   0.18   90.7    52    5.8   101     8.5   502.1    0.00 
 206    6:50   0.18   90.5    54    6.6    96     9.2   502.1    0.00 
 206    7:00   0.15   90.1    57    6.2    98     8.6   502.1    0.00 
 206    7:10   0.15   89.8    58    5.8    96     8.6   502.1    0.00 
 206    7:20   0.15   89.6    59    5.9   100     8.8   502.1    0.00 
 206    7:30   0.18   89.7    58    7.8    99    10.8   502.1    0.00 
 206    7:40   0.22   89.6    58    6.8    98     9.6   502.1    0.00 
 206    7:50   0.37   90.8    55    5.8   103     8.7   502.1    0.00 
 206    8:00   0.44   91.9    53    5.9   108     9.8   502.1    0.00 
 206    8:10   0.56   93.0    51    5.8   124    10.3   502.1    0.00 
 206    8:20   0.49   93.8    50    4.9   130     8.3   502.2    0.00 
 206    8:30   0.58   94.4    49    4.5   152     7.3   502.3    0.00 
 206    8:40   0.50   95.1    48    5.4   114     8.8   502.3    0.00 
 206    8:50   0.66   94.6    49    5.7    98    10.7   502.3    0.00 
 206    9:00   0.73   94.7    49    5.7    90    10.2   502.3    0.00 
 206    9:10   0.71   95.5    48    5.3   101     9.1   502.3    0.00 
 206    9:20   0.39   95.2    47    6.0   105    10.5   502.3    0.00 
 206    9:30   0.46   95.3    46    3.5   112     9.0   502.3    0.00 
 206    9:40   0.56   96.0    45    5.5   128    11.9   502.3    0.00 
 206    9:50   0.38   96.3    44    6.3   116    10.8   938.0    0.00 
 206   10:00   0.26   95.8    44    4.9   114     9.2   979.0    0.00 
 206   10:10   0.43   95.9    43    3.0   140     6.6   978.7    0.00 
 206   10:20   0.48   97.0    41    2.6   138     4.9   978.5    0.00 
 206   10:30   0.42   97.2    42    5.5   114     9.9   978.9    0.00 
 206   10:40   0.41   97.6    41    3.3   141     7.5   979.3    0.00 
 206   10:50   0.69   97.7    40    4.6   165    10.3   979.5    0.00 
 206   11:00   0.75   99.3    39    3.0   188     6.1   979.6    0.00 
 206   11:10   0.73  100.1    38    3.4   303     5.8   979.6    0.00 
 206   11:20   1.06  100.5    36    2.5   332     5.9   979.5    0.00 
 206   11:30   0.79  101.0    37    5.2    67    11.5   979.4    0.00 
 206   11:40   0.55  100.3    37    4.6   105     8.9   979.4    0.00 
 206   11:50   0.96  101.2    36    4.1    99     8.3   979.4    0.00 
 206   12:00   0.45  101.0    36    3.0   124     6.9   979.4    0.00 
 206   12:10   0.38  100.6    34    2.3   130     5.6   979.3    0.00 
 206   12:20   0.58  102.2    31    3.1     4     8.1   979.3    0.00 
 206   12:30   1.11  102.7    32    4.2   292     7.1   979.1    0.00 
 206   12:40   0.95  104.9    29    3.8    50     8.6   979.1    0.00 
 206   12:50   0.98  103.8    30    5.5    65     9.7   979.0    0.00 
 206   13:00   0.65  104.7    30    3.4    24     6.6   979.0    0.00 
 206   13:10   0.76  104.1    29    4.6    17     9.4   978.8    0.00 
 206   13:20   0.91  105.8    27    6.1    41    10.8   978.7    0.00 
 206   13:30   0.27  103.9    28    5.5    19     9.9   978.6    0.00 
 206   13:40   0.31  103.4    28    2.8    58     7.2   978.4    0.00 
 206   13:50   0.43  103.7    27    1.7   103     5.0   978.2    0.00 
 206   14:00   0.36  105.4    26    3.5    79     8.6   977.8    0.00 
 206   14:10   0.23  104.2    26    4.4    16     9.3   977.7    0.00 
 206   14:20   0.09  102.8    26    2.8    23     6.2   977.6    0.00 
 206   14:30   0.08  102.8    27    1.5   324     3.7   977.5    0.00 
 206   14:40   0.07  102.8    27    1.8   318     4.1   977.5    0.00 
 206   14:50   0.08   99.9    35    5.9   327    11.5   977.5    0.00 
 206   15:00   0.08   97.5    33    9.2   343    16.4   977.5    0.00 
 206   15:10   0.09   97.0    34    6.6   330    15.5   977.5    0.00 
 206   15:20   0.13   97.5    34    4.2   163     9.4   977.5    0.00 
 206   15:30   0.21   98.6    34    1.4   229     3.7   977.3    0.00 
 206   15:40   0.18  100.4    30    0.4   265     1.7   977.3    0.00 
 206   15:50   0.49  101.8    30    2.7   241     4.7   977.3    0.00 
 206   16:00   0.28  103.5    27    2.1   248     3.9   977.2    0.00 
 206   16:10   0.22  103.3    26    0.6   349     2.0   976.9    0.00 
 206   16:20   0.17  103.4    26    1.1    44     3.7   976.7    0.00 
 206   16:30   0.44  105.6    23    1.9    28     4.7   976.6    0.00 
 206   16:40   0.42  106.6    22    2.0   337     3.9   976.4    0.00 
 206   16:50   0.36  106.4    21    2.2   307     3.9   976.3    0.00 
 206   17:00   0.31  107.1    20    2.4     2    11.8   976.3    0.00 
 206   17:10   0.27  105.9    18    7.1   344    13.3   976.3    0.00 
 206   17:20   0.22  105.2    18    6.9   336    11.5   976.4    0.00 
 206   17:30   0.09  103.3    19    7.4   327    11.9   976.5    0.00 
 206   17:40   0.14  103.5    19    7.5   318    10.5   976.5    0.00 
 206   17:50   0.05  101.9    21   10.8   328    18.2   976.4    0.00 
 206   18:00   0.05  100.9    23   13.8   318    23.0   976.4    0.00 
 206   18:10   0.04  100.4    23   10.9   314    17.2   976.6    0.00 
 206   18:20   0.03  100.0    23   10.2   314    18.3   976.9    0.00 
 206   18:30   0.03   99.9    23    8.0   314    15.7   977.3    0.00 
 206   18:40   0.03   99.7    23    9.1   319    14.5   977.4    0.00 
 206   18:50   0.02   99.5    23   10.5   320    15.4   977.2    0.00 
 206   19:00   0.00   99.0    24    8.2   328    13.1   976.5    0.00 
 206   19:10   0.00   98.7    24    7.0   306    13.8   935.8    0.00 
 206   19:20   0.00   98.1    24    6.8   312    11.9   502.3    0.00 
 206   19:30   0.00   98.0    24    7.2   308    11.5   502.3    0.00 
 206   19:40   0.00   98.2    23    7.2   312    12.1   502.3    0.00 
 206   19:50   0.00   98.0    22    9.1   306    13.0   502.3    0.00 
 206   20:00   0.00   98.0    22    9.4   310    13.0   502.3    0.00 
 206   20:10   0.00   97.8    22    8.9   316    14.3   502.3    0.00 
 206   20:20   0.00   97.7    21    7.0   312    10.3   502.3    0.00 
 206   20:30   0.00   96.6    22    3.4   250     9.1   502.3    0.00 
 206   20:40   0.00   95.3    24    1.5   196     3.6   502.3    0.00 
 206   20:50   0.00   92.6    26    2.0   266     3.0   502.2    0.00 
 206   21:00   0.00   91.0    27    1.2   239     4.5   502.1    0.00 
 206   21:10   0.00   91.5    27    2.5    99     5.6   502.1    0.00 
 206   21:20   0.00   92.9    26    1.4   133     5.6   502.1    0.00 
 206   21:30   0.00   92.5    26    2.4   166     4.3   502.1    0.00 
 206   21:40   0.00   91.4    26    1.7   117     4.9   502.1    0.00 
 206   21:50   0.00   91.6    26    1.5   216     4.5   502.1    0.00 
 206   22:00   0.00   90.5    27    2.5   224     4.5   502.1    0.00 
 206   22:10   0.00   90.6    27    3.7   245     5.1   502.1    0.00 
 206   22:20   0.00   88.5    28    4.1   253     5.1   502.1    0.00 
 206   22:30   0.00   88.2    29    3.9   264     5.3   502.1    0.00 
 206   22:40   0.00   87.9    29    2.6   224     4.1   502.1    0.00 
 206   22:50   0.00   89.3    28    2.6   148     3.7   502.0    0.00 
 206   23:00   0.00   89.7    28    1.3   272     3.5   502.0    0.00 
 206   23:10   0.00   88.8    28    2.0   302     3.4   502.0    0.00 
 206   23:20   0.00   89.4    28    1.1   231     4.1   502.0    0.00 
 206   23:30   0.00   90.3    26    4.4   201     6.1   502.0    0.00 
 206   23:40   0.00   88.1    28    4.1   249     6.1   502.0    0.00 
 206   23:50   0.00   87.1    29    2.5   232     3.9   502.0    0.00 
 207    0:00   0.00   86.7    30    2.6    43     4.8   502.0    0.00 
 207    0:10   0.00   86.3    31    3.9   326     5.4   502.0    0.00 
 207    0:20   0.00   86.6    30    4.0   313     5.0   502.0    0.00 
 207    0:30   0.00   86.1    30    3.6   216     5.6   502.0    0.00 
 207    0:40   0.00   85.5    31    4.8   215     5.8   502.0    0.00 

Return to Anza Borrego Desert Research Center graphs page.


Western Regional Climate Center,wrcc@dri.edu